sensor_id;sensor_type;location;lat;lon;timestamp;P1;durP1;ratioP1;P2;durP2;ratioP2
10383;SDS011;5238;43.508;4.980;2022-09-13T00:02:23;6.00;;;3.00;;
10383;SDS011;5238;43.508;4.980;2022-09-13T00:04:50;3.78;;;2.78;;
10383;SDS011;5238;43.508;4.980;2022-09-13T00:07:34;4.65;;;2.60;;
10383;SDS011;5238;43.508;4.980;2022-09-13T00:10:17;3.60;;;2.88;;
10383;SDS011;5238;43.508;4.980;2022-09-13T00:12:55;3.78;;;2.72;;
10383;SDS011;5238;43.508;4.980;2022-09-13T00:15:30;5.30;;;2.85;;
10383;SDS011;5238;43.508;4.980;2022-09-13T00:17:58;4.68;;;3.38;;
10383;SDS011;5238;43.508;4.980;2022-09-13T00:20:44;4.90;;;3.17;;
10383;SDS011;5238;43.508;4.980;2022-09-13T00:23:24;3.15;;;2.85;;
10383;SDS011;5238;43.508;4.980;2022-09-13T00:26:04;3.20;;;2.58;;
10383;SDS011;5238;43.508;4.980;2022-09-13T00:28:34;4.10;;;2.88;;
10383;SDS011;5238;43.508;4.980;2022-09-13T00:31:04;3.17;;;2.88;;
10383;SDS011;5238;43.508;4.980;2022-09-13T00:33:49;3.47;;;3.17;;
10383;SDS011;5238;43.508;4.980;2022-09-13T00:36:34;3.90;;;2.95;;
10383;SDS011;5238;43.508;4.980;2022-09-13T00:39:19;4.53;;;2.90;;
10383;SDS011;5238;43.508;4.980;2022-09-13T00:41:48;4.85;;;2.92;;
10383;SDS011;5238;43.508;4.980;2022-09-13T00:47:25;6.10;;;3.28;;
10383;SDS011;5238;43.508;4.980;2022-09-13T00:50:05;2.88;;;2.67;;
10383;SDS011;5238;43.508;4.980;2022-09-13T00:52:54;5.05;;;2.90;;
10383;SDS011;5238;43.508;4.980;2022-09-13T00:55:40;6.03;;;3.30;;
10383;SDS011;5238;43.508;4.980;2022-09-13T00:58:21;4.55;;;3.00;;
10383;SDS011;5238;43.508;4.980;2022-09-13T01:00:51;3.78;;;3.25;;
10383;SDS011;5238;43.508;4.980;2022-09-13T01:03:25;3.72;;;3.40;;
10383;SDS011;5238;43.508;4.980;2022-09-13T01:05:57;4.43;;;3.60;;
10383;SDS011;5238;43.508;4.980;2022-09-13T01:08:30;5.70;;;3.45;;
10383;SDS011;5238;43.508;4.980;2022-09-13T01:11:05;6.35;;;3.65;;
10383;SDS011;5238;43.508;4.980;2022-09-13T01:13:49;5.00;;;3.45;;
10383;SDS011;5238;43.508;4.980;2022-09-13T01:16:24;5.97;;;3.50;;
10383;SDS011;5238;43.508;4.980;2022-09-13T01:19:13;5.05;;;3.50;;
10383;SDS011;5238;43.508;4.980;2022-09-13T01:22:01;4.07;;;3.53;;
10383;SDS011;5238;43.508;4.980;2022-09-13T01:25:01;4.78;;;3.38;;
10383;SDS011;5238;43.508;4.980;2022-09-13T01:28:07;3.92;;;3.60;;
10383;SDS011;5238;43.508;4.980;2022-09-13T01:30:47;5.68;;;4.18;;
10383;SDS011;5238;43.508;4.980;2022-09-13T01:33:38;4.18;;;3.53;;
10383;SDS011;5238;43.508;4.980;2022-09-13T01:39:13;4.47;;;3.30;;
10383;SDS011;5238;43.508;4.980;2022-09-13T01:42:02;6.07;;;3.53;;
10383;SDS011;5238;43.508;4.980;2022-09-13T01:44:46;5.60;;;3.33;;
10383;SDS011;5238;43.508;4.980;2022-09-13T01:47:33;5.95;;;3.28;;
10383;SDS011;5238;43.508;4.980;2022-09-13T01:50:33;4.03;;;3.22;;
10383;SDS011;5238;43.508;4.980;2022-09-13T01:53:20;7.65;;;3.42;;
10383;SDS011;5238;43.508;4.980;2022-09-13T01:56:04;6.10;;;4.05;;
10383;SDS011;5238;43.508;4.980;2022-09-13T01:58:38;4.80;;;3.28;;
10383;SDS011;5238;43.508;4.980;2022-09-13T02:01:27;3.65;;;2.75;;
10383;SDS011;5238;43.508;4.980;2022-09-13T02:04:23;4.43;;;3.38;;
10383;SDS011;5238;43.508;4.980;2022-09-13T02:06:58;5.40;;;3.38;;
10383;SDS011;5238;43.508;4.980;2022-09-13T02:09:29;4.30;;;2.85;;
10383;SDS011;5238;43.508;4.980;2022-09-13T02:12:15;6.22;;;3.25;;
10383;SDS011;5238;43.508;4.980;2022-09-13T02:14:53;3.70;;;3.40;;
10383;SDS011;5238;43.508;4.980;2022-09-13T02:17:25;3.50;;;3.20;;
10383;SDS011;5238;43.508;4.980;2022-09-13T02:20:06;3.70;;;2.85;;
10383;SDS011;5238;43.508;4.980;2022-09-13T02:22:39;3.85;;;3.00;;
10383;SDS011;5238;43.508;4.980;2022-09-13T02:25:15;5.57;;;2.80;;
10383;SDS011;5238;43.508;4.980;2022-09-13T02:27:54;4.57;;;3.35;;
10383;SDS011;5238;43.508;4.980;2022-09-13T02:30:27;3.40;;;2.83;;
10383;SDS011;5238;43.508;4.980;2022-09-13T02:33:15;5.20;;;3.10;;
10383;SDS011;5238;43.508;4.980;2022-09-13T02:35:58;4.85;;;3.10;;
10383;SDS011;5238;43.508;4.980;2022-09-13T02:38:30;6.30;;;3.22;;
10383;SDS011;5238;43.508;4.980;2022-09-13T02:41:08;5.43;;;3.70;;
10383;SDS011;5238;43.508;4.980;2022-09-13T02:43:47;2.90;;;2.50;;
10383;SDS011;5238;43.508;4.980;2022-09-13T02:46:21;6.45;;;3.20;;
10383;SDS011;5238;43.508;4.980;2022-09-13T02:49:04;3.10;;;2.80;;
10383;SDS011;5238;43.508;4.980;2022-09-13T02:51:56;3.17;;;2.83;;
10383;SDS011;5238;43.508;4.980;2022-09-13T02:54:42;3.10;;;2.83;;
10383;SDS011;5238;43.508;4.980;2022-09-13T02:57:21;3.85;;;3.08;;
10383;SDS011;5238;43.508;4.980;2022-09-13T02:59:58;5.57;;;3.33;;
10383;SDS011;5238;43.508;4.980;2022-09-13T03:02:34;6.07;;;2.92;;
10383;SDS011;5238;43.508;4.980;2022-09-13T03:05:11;3.53;;;2.90;;
10383;SDS011;5238;43.508;4.980;2022-09-13T03:07:40;4.50;;;3.05;;
10383;SDS011;5238;43.508;4.980;2022-09-13T03:10:10;5.07;;;2.78;;
10383;SDS011;5238;43.508;4.980;2022-09-13T03:12:54;3.55;;;2.70;;
10383;SDS011;5238;43.508;4.980;2022-09-13T03:15:51;3.85;;;2.95;;
10383;SDS011;5238;43.508;4.980;2022-09-13T03:18:33;3.38;;;2.55;;
10383;SDS011;5238;43.508;4.980;2022-09-13T03:21:37;4.03;;;2.53;;
10383;SDS011;5238;43.508;4.980;2022-09-13T03:24:21;4.45;;;2.70;;
10383;SDS011;5238;43.508;4.980;2022-09-13T03:27:10;4.35;;;3.13;;
10383;SDS011;5238;43.508;4.980;2022-09-13T03:29:52;3.92;;;2.67;;
10383;SDS011;5238;43.508;4.980;2022-09-13T03:32:34;5.18;;;2.70;;
10383;SDS011;5238;43.508;4.980;2022-09-13T03:35:17;3.78;;;2.60;;
10383;SDS011;5238;43.508;4.980;2022-09-13T03:37:57;4.63;;;2.83;;
10383;SDS011;5238;43.508;4.980;2022-09-13T03:40:39;4.45;;;2.97;;
10383;SDS011;5238;43.508;4.980;2022-09-13T03:43:15;3.25;;;3.00;;
10383;SDS011;5238;43.508;4.980;2022-09-13T03:46:01;3.42;;;2.50;;
10383;SDS011;5238;43.508;4.980;2022-09-13T03:48:35;3.03;;;2.72;;
10383;SDS011;5238;43.508;4.980;2022-09-13T03:51:08;6.07;;;2.80;;
10383;SDS011;5238;43.508;4.980;2022-09-13T03:53:38;3.65;;;2.72;;
10383;SDS011;5238;43.508;4.980;2022-09-13T03:56:14;4.00;;;2.85;;
10383;SDS011;5238;43.508;4.980;2022-09-13T03:58:46;5.32;;;3.00;;
10383;SDS011;5238;43.508;4.980;2022-09-13T04:01:22;2.78;;;2.55;;
10383;SDS011;5238;43.508;4.980;2022-09-13T04:03:53;3.60;;;3.20;;
10383;SDS011;5238;43.508;4.980;2022-09-13T04:06:39;3.40;;;2.85;;
10383;SDS011;5238;43.508;4.980;2022-09-13T04:09:16;4.82;;;2.95;;
10383;SDS011;5238;43.508;4.980;2022-09-13T04:11:49;3.10;;;2.78;;
10383;SDS011;5238;43.508;4.980;2022-09-13T04:14:24;2.97;;;2.70;;
10383;SDS011;5238;43.508;4.980;2022-09-13T04:16:59;5.45;;;3.03;;
10383;SDS011;5238;43.508;4.980;2022-09-13T04:19:27;3.95;;;2.63;;
10383;SDS011;5238;43.508;4.980;2022-09-13T04:22:02;3.88;;;2.90;;
10383;SDS011;5238;43.508;4.980;2022-09-13T04:24:30;4.13;;;2.88;;
10383;SDS011;5238;43.508;4.980;2022-09-13T04:27:16;4.10;;;2.97;;
10383;SDS011;5238;43.508;4.980;2022-09-13T04:29:47;5.45;;;2.67;;
10383;SDS011;5238;43.508;4.980;2022-09-13T04:32:15;5.30;;;3.45;;
10383;SDS011;5238;43.508;4.980;2022-09-13T04:34:42;3.17;;;2.80;;
10383;SDS011;5238;43.508;4.980;2022-09-13T04:37:17;3.35;;;2.60;;
10383;SDS011;5238;43.508;4.980;2022-09-13T04:39:49;3.40;;;2.67;;
10383;SDS011;5238;43.508;4.980;2022-09-13T04:42:19;6.00;;;3.17;;
10383;SDS011;5238;43.508;4.980;2022-09-13T04:44:46;3.58;;;2.65;;
10383;SDS011;5238;43.508;4.980;2022-09-13T04:47:16;2.97;;;2.78;;
10383;SDS011;5238;43.508;4.980;2022-09-13T04:49:47;2.90;;;2.60;;
10383;SDS011;5238;43.508;4.980;2022-09-13T04:52:22;4.18;;;2.55;;
10383;SDS011;5238;43.508;4.980;2022-09-13T04:54:49;5.55;;;3.00;;
10383;SDS011;5238;43.508;4.980;2022-09-13T04:57:26;3.83;;;2.75;;
10383;SDS011;5238;43.508;4.980;2022-09-13T04:59:55;3.78;;;2.50;;
10383;SDS011;5238;43.508;4.980;2022-09-13T05:02:24;6.18;;;3.00;;
10383;SDS011;5238;43.508;4.980;2022-09-13T05:04:58;3.22;;;2.97;;
10383;SDS011;5238;43.508;4.980;2022-09-13T05:07:26;3.33;;;2.67;;
10383;SDS011;5238;43.508;4.980;2022-09-13T05:09:57;3.88;;;2.92;;
10383;SDS011;5238;43.508;4.980;2022-09-13T05:12:27;3.53;;;3.10;;
10383;SDS011;5238;43.508;4.980;2022-09-13T05:14:55;3.20;;;2.70;;
10383;SDS011;5238;43.508;4.980;2022-09-13T05:17:22;3.55;;;2.72;;
10383;SDS011;5238;43.508;4.980;2022-09-13T05:19:49;3.00;;;2.33;;
10383;SDS011;5238;43.508;4.980;2022-09-13T05:22:19;2.95;;;2.65;;
10383;SDS011;5238;43.508;4.980;2022-09-13T05:24:47;2.88;;;2.60;;
10383;SDS011;5238;43.508;4.980;2022-09-13T05:27:29;3.72;;;2.65;;
10383;SDS011;5238;43.508;4.980;2022-09-13T05:29:58;3.00;;;2.70;;
10383;SDS011;5238;43.508;4.980;2022-09-13T05:32:39;3.50;;;3.15;;
10383;SDS011;5238;43.508;4.980;2022-09-13T05:35:31;5.45;;;3.25;;
10383;SDS011;5238;43.508;4.980;2022-09-13T05:37:59;4.25;;;2.42;;
10383;SDS011;5238;43.508;4.980;2022-09-13T05:40:28;4.32;;;2.63;;
10383;SDS011;5238;43.508;4.980;2022-09-13T05:43:08;4.05;;;2.40;;
10383;SDS011;5238;43.508;4.980;2022-09-13T05:45:36;3.53;;;2.53;;
10383;SDS011;5238;43.508;4.980;2022-09-13T05:48:15;4.97;;;2.42;;
10383;SDS011;5238;43.508;4.980;2022-09-13T05:50:43;4.47;;;2.65;;
10383;SDS011;5238;43.508;4.980;2022-09-13T05:53:10;3.47;;;2.53;;
10383;SDS011;5238;43.508;4.980;2022-09-13T05:55:39;4.65;;;2.60;;
10383;SDS011;5238;43.508;4.980;2022-09-13T05:58:07;3.67;;;2.50;;
10383;SDS011;5238;43.508;4.980;2022-09-13T06:00:43;3.95;;;2.47;;
10383;SDS011;5238;43.508;4.980;2022-09-13T06:03:11;2.47;;;2.25;;
10383;SDS011;5238;43.508;4.980;2022-09-13T06:05:53;5.22;;;2.55;;
10383;SDS011;5238;43.508;4.980;2022-09-13T06:08:25;5.45;;;2.90;;
10383;SDS011;5238;43.508;4.980;2022-09-13T06:11:06;6.25;;;2.40;;
10383;SDS011;5238;43.508;4.980;2022-09-13T06:13:38;4.43;;;3.20;;
10383;SDS011;5238;43.508;4.980;2022-09-13T06:16:07;4.05;;;2.38;;
10383;SDS011;5238;43.508;4.980;2022-09-13T06:18:41;4.65;;;2.40;;
10383;SDS011;5238;43.508;4.980;2022-09-13T06:21:23;7.43;;;3.00;;
10383;SDS011;5238;43.508;4.980;2022-09-13T06:23:52;2.85;;;2.35;;
10383;SDS011;5238;43.508;4.980;2022-09-13T06:26:33;4.55;;;2.67;;
10383;SDS011;5238;43.508;4.980;2022-09-13T06:29:03;4.88;;;2.72;;
10383;SDS011;5238;43.508;4.980;2022-09-13T06:31:44;6.22;;;2.60;;
10383;SDS011;5238;43.508;4.980;2022-09-13T06:34:26;3.10;;;2.40;;
10383;SDS011;5238;43.508;4.980;2022-09-13T06:37:06;5.40;;;2.50;;
10383;SDS011;5238;43.508;4.980;2022-09-13T06:39:47;3.72;;;2.47;;
10383;SDS011;5238;43.508;4.980;2022-09-13T06:42:28;4.93;;;2.30;;
10383;SDS011;5238;43.508;4.980;2022-09-13T06:45:05;4.18;;;2.50;;
10383;SDS011;5238;43.508;4.980;2022-09-13T06:47:46;3.13;;;2.33;;
10383;SDS011;5238;43.508;4.980;2022-09-13T06:50:22;3.13;;;2.03;;
10383;SDS011;5238;43.508;4.980;2022-09-13T06:52:55;3.38;;;2.10;;
10383;SDS011;5238;43.508;4.980;2022-09-13T06:55:28;4.72;;;2.70;;
10383;SDS011;5238;43.508;4.980;2022-09-13T06:57:57;6.47;;;2.50;;
10383;SDS011;5238;43.508;4.980;2022-09-13T07:00:26;4.45;;;2.45;;
10383;SDS011;5238;43.508;4.980;2022-09-13T07:02:53;3.85;;;2.17;;
10383;SDS011;5238;43.508;4.980;2022-09-13T07:05:20;6.45;;;2.50;;
10383;SDS011;5238;43.508;4.980;2022-09-13T07:07:55;3.38;;;1.98;;
10383;SDS011;5238;43.508;4.980;2022-09-13T07:10:37;4.70;;;2.38;;
10383;SDS011;5238;43.508;4.980;2022-09-13T07:13:04;5.22;;;2.70;;
10383;SDS011;5238;43.508;4.980;2022-09-13T07:15:36;7.30;;;2.70;;
10383;SDS011;5238;43.508;4.980;2022-09-13T07:18:10;5.28;;;2.38;;
10383;SDS011;5238;43.508;4.980;2022-09-13T07:20:41;4.32;;;2.10;;
10383;SDS011;5238;43.508;4.980;2022-09-13T07:23:10;4.20;;;2.58;;
10383;SDS011;5238;43.508;4.980;2022-09-13T07:25:56;6.97;;;2.58;;
10383;SDS011;5238;43.508;4.980;2022-09-13T07:28:38;3.95;;;2.05;;
10383;SDS011;5238;43.508;4.980;2022-09-13T07:31:29;4.53;;;2.30;;
10383;SDS011;5238;43.508;4.980;2022-09-13T07:33:58;2.83;;;2.28;;
10383;SDS011;5238;43.508;4.980;2022-09-13T07:36:40;3.72;;;2.25;;
10383;SDS011;5238;43.508;4.980;2022-09-13T07:39:09;8.05;;;2.50;;
10383;SDS011;5238;43.508;4.980;2022-09-13T07:41:40;3.83;;;2.22;;
10383;SDS011;5238;43.508;4.980;2022-09-13T07:44:15;4.93;;;2.15;;
10383;SDS011;5238;43.508;4.980;2022-09-13T07:46:57;5.20;;;2.35;;
10383;SDS011;5238;43.508;4.980;2022-09-13T07:49:26;7.53;;;2.38;;
10383;SDS011;5238;43.508;4.980;2022-09-13T07:52:08;4.47;;;2.22;;
10383;SDS011;5238;43.508;4.980;2022-09-13T07:54:44;4.53;;;2.35;;
10383;SDS011;5238;43.508;4.980;2022-09-13T07:57:12;8.05;;;2.60;;
10383;SDS011;5238;43.508;4.980;2022-09-13T07:59:42;2.95;;;2.20;;
10383;SDS011;5238;43.508;4.980;2022-09-13T08:02:11;6.18;;;2.53;;
10383;SDS011;5238;43.508;4.980;2022-09-13T08:04:58;5.07;;;2.30;;
10383;SDS011;5238;43.508;4.980;2022-09-13T08:07:28;5.03;;;2.40;;
10383;SDS011;5238;43.508;4.980;2022-09-13T08:09:59;4.50;;;2.47;;
10383;SDS011;5238;43.508;4.980;2022-09-13T08:12:34;4.50;;;2.28;;
10383;SDS011;5238;43.508;4.980;2022-09-13T08:15:03;4.72;;;2.60;;
10383;SDS011;5238;43.508;4.980;2022-09-13T08:17:46;6.28;;;2.78;;
10383;SDS011;5238;43.508;4.980;2022-09-13T08:20:21;7.85;;;2.10;;
10383;SDS011;5238;43.508;4.980;2022-09-13T08:22:49;4.90;;;2.35;;
10383;SDS011;5238;43.508;4.980;2022-09-13T08:25:30;4.45;;;2.33;;
10383;SDS011;5238;43.508;4.980;2022-09-13T08:28:13;2.97;;;2.15;;
10383;SDS011;5238;43.508;4.980;2022-09-13T08:30:49;6.07;;;2.33;;
10383;SDS011;5238;43.508;4.980;2022-09-13T08:33:23;4.40;;;2.30;;
10383;SDS011;5238;43.508;4.980;2022-09-13T08:36:04;4.05;;;2.10;;
10383;SDS011;5238;43.508;4.980;2022-09-13T08:38:32;5.43;;;2.60;;
10383;SDS011;5238;43.508;4.980;2022-09-13T08:41:04;2.67;;;2.30;;
10383;SDS011;5238;43.508;4.980;2022-09-13T08:44:01;3.67;;;1.88;;
10383;SDS011;5238;43.508;4.980;2022-09-13T08:46:52;4.10;;;1.95;;
10383;SDS011;5238;43.508;4.980;2022-09-13T08:49:30;5.07;;;2.30;;
10383;SDS011;5238;43.508;4.980;2022-09-13T08:52:11;3.78;;;2.00;;
10383;SDS011;5238;43.508;4.980;2022-09-13T08:54:46;6.20;;;2.15;;
10383;SDS011;5238;43.508;4.980;2022-09-13T08:57:16;5.03;;;2.30;;
10383;SDS011;5238;43.508;4.980;2022-09-13T09:00:03;4.10;;;2.40;;
10383;SDS011;5238;43.508;4.980;2022-09-13T09:02:47;5.13;;;2.20;;
10383;SDS011;5238;43.508;4.980;2022-09-13T09:05:27;6.15;;;2.38;;
10383;SDS011;5238;43.508;4.980;2022-09-13T09:07:56;3.95;;;2.22;;
10383;SDS011;5238;43.508;4.980;2022-09-13T09:10:31;7.28;;;2.17;;
10383;SDS011;5238;43.508;4.980;2022-09-13T09:13:08;2.70;;;2.30;;
10383;SDS011;5238;43.508;4.980;2022-09-13T09:15:55;3.90;;;2.20;;
10383;SDS011;5238;43.508;4.980;2022-09-13T09:18:29;5.90;;;2.35;;
10383;SDS011;5238;43.508;4.980;2022-09-13T09:21:06;3.80;;;2.42;;
10383;SDS011;5238;43.508;4.980;2022-09-13T09:23:58;6.90;;;1.90;;
10383;SDS011;5238;43.508;4.980;2022-09-13T09:26:43;3.75;;;2.22;;
10383;SDS011;5238;43.508;4.980;2022-09-13T09:29:14;3.17;;;1.85;;
10383;SDS011;5238;43.508;4.980;2022-09-13T09:32:02;4.07;;;1.80;;
10383;SDS011;5238;43.508;4.980;2022-09-13T09:34:44;4.30;;;2.00;;
10383;SDS011;5238;43.508;4.980;2022-09-13T09:37:23;6.22;;;2.42;;
10383;SDS011;5238;43.508;4.980;2022-09-13T09:40:08;3.92;;;1.80;;
10383;SDS011;5238;43.508;4.980;2022-09-13T09:42:52;3.40;;;1.98;;
10383;SDS011;5238;43.508;4.980;2022-09-13T09:45:34;4.85;;;2.00;;
10383;SDS011;5238;43.508;4.980;2022-09-13T09:48:16;2.67;;;1.90;;
10383;SDS011;5238;43.508;4.980;2022-09-13T09:51:01;3.90;;;1.80;;
10383;SDS011;5238;43.508;4.980;2022-09-13T09:53:43;4.05;;;2.08;;
10383;SDS011;5238;43.508;4.980;2022-09-13T09:56:18;4.15;;;1.90;;
10383;SDS011;5238;43.508;4.980;2022-09-13T09:58:48;4.82;;;1.95;;
10383;SDS011;5238;43.508;4.980;2022-09-13T10:01:33;5.13;;;2.00;;
10383;SDS011;5238;43.508;4.980;2022-09-13T10:04:17;4.05;;;1.70;;
10383;SDS011;5238;43.508;4.980;2022-09-13T10:07:09;4.38;;;2.05;;
10383;SDS011;5238;43.508;4.980;2022-09-13T10:10:06;4.78;;;2.17;;
10383;SDS011;5238;43.508;4.980;2022-09-13T10:12:49;2.75;;;1.58;;
10383;SDS011;5238;43.508;4.980;2022-09-13T10:15:21;3.33;;;1.90;;
10383;SDS011;5238;43.508;4.980;2022-09-13T10:18:00;3.67;;;1.88;;
10383;SDS011;5238;43.508;4.980;2022-09-13T10:20:32;3.85;;;1.92;;
10383;SDS011;5238;43.508;4.980;2022-09-13T10:23:11;5.50;;;2.20;;
10383;SDS011;5238;43.508;4.980;2022-09-13T10:25:59;3.17;;;1.80;;
10383;SDS011;5238;43.508;4.980;2022-09-13T10:28:44;2.95;;;1.52;;
10383;SDS011;5238;43.508;4.980;2022-09-13T10:31:28;4.63;;;1.90;;
10383;SDS011;5238;43.508;4.980;2022-09-13T10:34:28;8.27;;;2.63;;
10383;SDS011;5238;43.508;4.980;2022-09-13T10:37:17;2.38;;;1.80;;
10383;SDS011;5238;43.508;4.980;2022-09-13T10:40:01;4.20;;;1.70;;
10383;SDS011;5238;43.508;4.980;2022-09-13T10:42:35;3.28;;;1.30;;
10383;SDS011;5238;43.508;4.980;2022-09-13T10:45:11;5.53;;;1.63;;
10383;SDS011;5238;43.508;4.980;2022-09-13T10:47:48;1.52;;;1.40;;
10383;SDS011;5238;43.508;4.980;2022-09-13T10:50:32;4.45;;;1.58;;
10383;SDS011;5238;43.508;4.980;2022-09-13T10:53:25;3.80;;;1.60;;
10383;SDS011;5238;43.508;4.980;2022-09-13T10:56:01;2.75;;;1.30;;
10383;SDS011;5238;43.508;4.980;2022-09-13T10:58:35;3.08;;;1.48;;
10383;SDS011;5238;43.508;4.980;2022-09-13T11:07:39;3.47;;;1.55;;
10383;SDS011;5238;43.508;4.980;2022-09-13T11:10:46;2.10;;;1.60;;
10383;SDS011;5238;43.508;4.980;2022-09-13T11:13:38;3.45;;;1.45;;
10383;SDS011;5238;43.508;4.980;2022-09-13T11:16:31;1.92;;;1.33;;
10383;SDS011;5238;43.508;4.980;2022-09-13T11:19:24;2.15;;;1.50;;
10383;SDS011;5238;43.508;4.980;2022-09-13T11:22:32;1.58;;;1.48;;
10383;SDS011;5238;43.508;4.980;2022-09-13T11:25:40;4.30;;;1.77;;
10383;SDS011;5238;43.508;4.980;2022-09-13T11:28:24;2.63;;;1.30;;
10383;SDS011;5238;43.508;4.980;2022-09-13T11:31:20;2.15;;;1.40;;
10383;SDS011;5238;43.508;4.980;2022-09-13T11:34:06;4.28;;;1.40;;
10383;SDS011;5238;43.508;4.980;2022-09-13T11:40:00;2.15;;;1.63;;
10383;SDS011;5238;43.508;4.980;2022-09-13T11:42:56;4.53;;;1.52;;
10383;SDS011;5238;43.508;4.980;2022-09-13T11:45:47;3.15;;;1.45;;
10383;SDS011;5238;43.508;4.980;2022-09-13T11:48:46;1.75;;;1.40;;
10383;SDS011;5238;43.508;4.980;2022-09-13T11:51:24;2.83;;;1.33;;
10383;SDS011;5238;43.508;4.980;2022-09-13T11:54:19;5.85;;;1.50;;
10383;SDS011;5238;43.508;4.980;2022-09-13T11:57:02;2.88;;;1.60;;
10383;SDS011;5238;43.508;4.980;2022-09-13T11:59:36;3.55;;;1.50;;
10383;SDS011;5238;43.508;4.980;2022-09-13T12:02:11;3.03;;;1.45;;
10383;SDS011;5238;43.508;4.980;2022-09-13T12:04:49;2.67;;;1.40;;
10383;SDS011;5238;43.508;4.980;2022-09-13T12:07:26;2.72;;;1.52;;
10383;SDS011;5238;43.508;4.980;2022-09-13T12:10:12;3.08;;;1.40;;
10383;SDS011;5238;43.508;4.980;2022-09-13T12:13:02;2.90;;;1.30;;
10383;SDS011;5238;43.508;4.980;2022-09-13T12:15:38;2.15;;;1.50;;
10383;SDS011;5238;43.508;4.980;2022-09-13T12:18:15;4.93;;;1.80;;
10383;SDS011;5238;43.508;4.980;2022-09-13T12:20:49;3.38;;;1.40;;
10383;SDS011;5238;43.508;4.980;2022-09-13T12:23:23;1.63;;;1.52;;
10383;SDS011;5238;43.508;4.980;2022-09-13T12:25:56;2.70;;;1.55;;
10383;SDS011;5238;43.508;4.980;2022-09-13T12:28:36;3.42;;;1.42;;
10383;SDS011;5238;43.508;4.980;2022-09-13T12:31:10;4.70;;;1.67;;
10383;SDS011;5238;43.508;4.980;2022-09-13T12:33:57;3.42;;;1.38;;
10383;SDS011;5238;43.508;4.980;2022-09-13T12:39:37;4.68;;;1.60;;
10383;SDS011;5238;43.508;4.980;2022-09-13T12:42:33;2.30;;;1.42;;
10383;SDS011;5238;43.508;4.980;2022-09-13T12:45:25;1.77;;;1.50;;
10383;SDS011;5238;43.508;4.980;2022-09-13T12:51:20;3.10;;;1.40;;
10383;SDS011;5238;43.508;4.980;2022-09-13T12:54:01;4.45;;;1.70;;
10383;SDS011;5238;43.508;4.980;2022-09-13T12:56:56;2.53;;;1.40;;
10383;SDS011;5238;43.508;4.980;2022-09-13T12:59:56;4.75;;;1.45;;
10383;SDS011;5238;43.508;4.980;2022-09-13T13:02:44;4.32;;;1.60;;
10383;SDS011;5238;43.508;4.980;2022-09-13T13:05:24;4.30;;;1.60;;
10383;SDS011;5238;43.508;4.980;2022-09-13T13:07:58;3.25;;;1.70;;
10383;SDS011;5238;43.508;4.980;2022-09-13T13:10:32;2.20;;;1.45;;
10383;SDS011;5238;43.508;4.980;2022-09-13T13:13:10;3.28;;;1.42;;
10383;SDS011;5238;43.508;4.980;2022-09-13T13:15:56;4.55;;;1.80;;
10383;SDS011;5238;43.508;4.980;2022-09-13T13:18:43;2.88;;;1.45;;
10383;SDS011;5238;43.508;4.980;2022-09-13T13:33:16;1.77;;;1.20;;
10383;SDS011;5238;43.508;4.980;2022-09-13T13:35:45;4.25;;;1.58;;
10383;SDS011;5238;43.508;4.980;2022-09-13T13:38:16;5.05;;;1.40;;
10383;SDS011;5238;43.508;4.980;2022-09-13T13:41:17;3.20;;;1.48;;
10383;SDS011;5238;43.508;4.980;2022-09-13T13:50:11;1.85;;;1.10;;
10383;SDS011;5238;43.508;4.980;2022-09-13T13:52:51;4.18;;;1.48;;
10383;SDS011;5238;43.508;4.980;2022-09-13T13:55:39;3.00;;;1.42;;
10383;SDS011;5238;43.508;4.980;2022-09-13T13:58:30;3.05;;;1.33;;
10383;SDS011;5238;43.508;4.980;2022-09-13T14:01:04;4.30;;;1.65;;
10383;SDS011;5238;43.508;4.980;2022-09-13T14:03:41;3.65;;;1.70;;
10383;SDS011;5238;43.508;4.980;2022-09-13T14:06:35;2.58;;;1.40;;
10383;SDS011;5238;43.508;4.980;2022-09-13T14:09:19;1.92;;;1.30;;
10383;SDS011;5238;43.508;4.980;2022-09-13T14:12:01;3.72;;;1.60;;
10383;SDS011;5238;43.508;4.980;2022-09-13T14:14:49;3.35;;;1.30;;
10383;SDS011;5238;43.508;4.980;2022-09-13T14:17:55;2.95;;;1.48;;
10383;SDS011;5238;43.508;4.980;2022-09-13T14:20:35;1.40;;;1.05;;
10383;SDS011;5238;43.508;4.980;2022-09-13T14:28:56;2.25;;;1.10;;
10383;SDS011;5238;43.508;4.980;2022-09-13T14:31:31;2.40;;;1.25;;
10383;SDS011;5238;43.508;4.980;2022-09-13T14:34:02;4.88;;;1.30;;
10383;SDS011;5238;43.508;4.980;2022-09-13T14:36:31;2.15;;;1.25;;
10383;SDS011;5238;43.508;4.980;2022-09-13T14:39:04;1.42;;;1.20;;
10383;SDS011;5238;43.508;4.980;2022-09-13T14:41:42;1.58;;;1.10;;
10383;SDS011;5238;43.508;4.980;2022-09-13T14:44:15;3.22;;;1.20;;
10383;SDS011;5238;43.508;4.980;2022-09-13T14:46:45;3.92;;;1.17;;
10383;SDS011;5238;43.508;4.980;2022-09-13T14:49:20;1.75;;;1.10;;
10383;SDS011;5238;43.508;4.980;2022-09-13T14:51:54;1.80;;;1.48;;
10383;SDS011;5238;43.508;4.980;2022-09-13T14:54:35;2.63;;;1.30;;
10383;SDS011;5238;43.508;4.980;2022-09-13T14:57:09;3.30;;;1.48;;
10383;SDS011;5238;43.508;4.980;2022-09-13T14:59:53;3.30;;;1.80;;
10383;SDS011;5238;43.508;4.980;2022-09-13T15:02:28;4.28;;;1.42;;
10383;SDS011;5238;43.508;4.980;2022-09-13T15:05:03;4.22;;;1.30;;
10383;SDS011;5238;43.508;4.980;2022-09-13T15:07:38;2.30;;;1.45;;
10383;SDS011;5238;43.508;4.980;2022-09-13T15:10:21;3.35;;;1.20;;
10383;SDS011;5238;43.508;4.980;2022-09-13T15:12:51;1.55;;;1.23;;
10383;SDS011;5238;43.508;4.980;2022-09-13T15:15:32;2.03;;;1.23;;
10383;SDS011;5238;43.508;4.980;2022-09-13T15:18:04;1.60;;;1.50;;
10383;SDS011;5238;43.508;4.980;2022-09-13T15:20:44;2.60;;;1.33;;
10383;SDS011;5238;43.508;4.980;2022-09-13T15:23:22;2.47;;;1.48;;
10383;SDS011;5238;43.508;4.980;2022-09-13T15:25:55;4.18;;;1.30;;
10383;SDS011;5238;43.508;4.980;2022-09-13T15:28:27;4.55;;;1.42;;
10383;SDS011;5238;43.508;4.980;2022-09-13T15:30:59;2.10;;;1.90;;
10383;SDS011;5238;43.508;4.980;2022-09-13T15:33:28;1.98;;;1.40;;
10383;SDS011;5238;43.508;4.980;2022-09-13T15:36:26;3.83;;;2.35;;
10383;SDS011;5238;43.508;4.980;2022-09-13T15:39:00;5.05;;;2.88;;
10383;SDS011;5238;43.508;4.980;2022-09-13T15:41:32;8.73;;;4.15;;
10383;SDS011;5238;43.508;4.980;2022-09-13T15:44:02;2.80;;;1.52;;
10383;SDS011;5238;43.508;4.980;2022-09-13T15:46:36;4.88;;;2.72;;
10383;SDS011;5238;43.508;4.980;2022-09-13T15:49:10;4.82;;;3.60;;
10383;SDS011;5238;43.508;4.980;2022-09-13T15:51:42;4.38;;;2.08;;
10383;SDS011;5238;43.508;4.980;2022-09-13T15:54:12;3.53;;;1.60;;
10383;SDS011;5238;43.508;4.980;2022-09-13T15:56:42;4.28;;;2.92;;
10383;SDS011;5238;43.508;4.980;2022-09-13T15:59:11;3.35;;;2.20;;
10383;SDS011;5238;43.508;4.980;2022-09-13T16:01:39;3.42;;;1.88;;
10383;SDS011;5238;43.508;4.980;2022-09-13T16:04:06;2.28;;;1.70;;
10383;SDS011;5238;43.508;4.980;2022-09-13T16:06:33;8.00;;;5.82;;
10383;SDS011;5238;43.508;4.980;2022-09-13T16:09:01;16.50;;;8.60;;
10383;SDS011;5238;43.508;4.980;2022-09-13T16:11:31;8.77;;;4.82;;
10383;SDS011;5238;43.508;4.980;2022-09-13T16:13:59;6.35;;;4.60;;
10383;SDS011;5238;43.508;4.980;2022-09-13T16:16:26;3.72;;;1.60;;
10383;SDS011;5238;43.508;4.980;2022-09-13T16:18:53;3.35;;;2.00;;
10383;SDS011;5238;43.508;4.980;2022-09-13T16:21:20;4.53;;;2.30;;
10383;SDS011;5238;43.508;4.980;2022-09-13T16:23:47;3.65;;;2.47;;
10383;SDS011;5238;43.508;4.980;2022-09-13T16:26:14;4.97;;;1.98;;
10383;SDS011;5238;43.508;4.980;2022-09-13T16:28:41;5.72;;;1.75;;
10383;SDS011;5238;43.508;4.980;2022-09-13T16:31:10;3.17;;;1.70;;
10383;SDS011;5238;43.508;4.980;2022-09-13T16:33:39;3.17;;;1.55;;
10383;SDS011;5238;43.508;4.980;2022-09-13T16:36:06;3.20;;;1.30;;
10383;SDS011;5238;43.508;4.980;2022-09-13T16:38:36;3.20;;;1.80;;
10383;SDS011;5238;43.508;4.980;2022-09-13T16:41:04;2.97;;;1.40;;
10383;SDS011;5238;43.508;4.980;2022-09-13T16:43:31;3.00;;;1.52;;
10383;SDS011;5238;43.508;4.980;2022-09-13T16:45:59;2.97;;;1.42;;
10383;SDS011;5238;43.508;4.980;2022-09-13T16:48:43;2.33;;;1.40;;
10383;SDS011;5238;43.508;4.980;2022-09-13T16:51:10;3.25;;;1.40;;
10383;SDS011;5238;43.508;4.980;2022-09-13T16:53:39;2.97;;;1.67;;